createdAt,value
2023-02-05T00:00:21.625Z,100238.61
2023-02-05T00:01:25.258Z,100242.61
2023-02-05T00:02:27.979Z,100237.53
2023-02-05T00:03:30.497Z,100234.17
2023-02-05T00:04:36.338Z,100238.28
2023-02-05T00:05:38.972Z,100234.72
2023-02-05T00:06:41.340Z,100235.80
2023-02-05T00:07:43.278Z,100242.03
2023-02-05T00:08:45.727Z,100239.52
2023-02-05T00:09:48.884Z,100233.54
2023-02-05T00:10:52.737Z,100235.23
2023-02-05T00:11:55.804Z,100246.87
2023-02-05T00:12:58.054Z,100236.44
2023-02-05T00:14:00.287Z,100237.47
2023-02-05T00:15:02.380Z,100242.55
2023-02-05T00:16:14.340Z,100242.88
2023-02-05T00:17:16.555Z,100236.08
2023-02-05T00:18:19.625Z,100243.81
2023-02-05T00:19:21.700Z,100248.65
2023-02-05T00:20:23.959Z,100254.58
2023-02-05T00:21:26.674Z,100242.75
2023-02-05T00:22:29.176Z,100247.02
2023-02-05T00:23:32.577Z,100246.20
2023-02-05T00:24:34.787Z,100244.48
2023-02-05T00:25:37.049Z,100239.64
2023-02-05T00:26:40.823Z,100245.45
2023-02-05T00:27:42.908Z,100247.26
2023-02-05T00:28:45.340Z,100242.33
2023-02-05T00:29:47.358Z,100237.30
2023-02-05T00:30:50.191Z,100243.66
2023-02-05T00:31:52.454Z,100236.14
2023-02-05T00:32:54.968Z,100240.28
2023-02-05T00:33:59.546Z,100247.92
2023-02-05T00:35:01.669Z,100238.44
2023-02-05T00:36:05.257Z,100242.84
2023-02-05T00:37:07.521Z,100245.17
2023-02-05T00:38:09.521Z,100234.27
2023-02-05T00:39:13.451Z,100237.77
2023-02-05T00:40:16.224Z,100241.88
2023-02-05T00:41:18.742Z,100231.88
2023-02-05T00:42:20.961Z,100236.05
2023-02-05T00:43:23.308Z,100236.86
2023-02-05T00:44:26.283Z,100243.52
2023-02-05T00:45:30.368Z,100241.82
2023-02-05T00:46:32.962Z,100240.73
2023-02-05T00:47:35.687Z,100242.48
2023-02-05T00:48:38.353Z,100238.47
2023-02-05T00:49:40.596Z,100252.91
2023-02-05T00:50:42.924Z,100252.91
2023-02-05T00:51:44.904Z,100246.96
2023-02-05T00:52:47.119Z,100253.20
2023-02-05T00:53:50.065Z,100248.31
2023-02-05T00:54:53.022Z,100249.30
2023-02-05T00:55:55.717Z,100248.45
2023-02-05T00:56:58.575Z,100256.95
2023-02-05T00:58:01.355Z,100239.03
2023-02-05T00:59:03.930Z,100250.64
2023-02-05T01:00:08.824Z,100246.30
2023-02-05T01:01:12.970Z,100253.30
2023-02-05T01:02:15.579Z,100251.52
2023-02-05T01:03:19.634Z,100244.89
2023-02-05T01:04:22.834Z,100250.73
2023-02-05T01:05:25.271Z,100254.32
2023-02-05T01:06:27.442Z,100249.86
2023-02-05T01:07:29.916Z,100243.00
2023-02-05T01:08:32.993Z,100244.72
2023-02-05T01:09:35.713Z,100259.34
2023-02-05T01:10:40.526Z,100246.59
2023-02-05T01:11:43.242Z,100252.91
2023-02-05T01:12:45.357Z,100248.08
2023-02-05T01:13:47.551Z,100242.91
2023-02-05T01:14:49.835Z,100253.39
2023-02-05T01:15:52.884Z,100250.85
2023-02-05T01:16:55.365Z,100241.27
2023-02-05T01:17:59.141Z,100250.85
2023-02-05T01:19:01.154Z,100244.05
2023-02-05T01:20:05.892Z,100244.57
2023-02-05T01:21:08.128Z,100246.35
2023-02-05T01:22:10.980Z,100244.16
2023-02-05T01:23:13.457Z,100251.25
2023-02-05T01:24:16.405Z,100238.72
2023-02-05T01:25:18.634Z,100237.14
2023-02-05T01:26:21.805Z,100243.66
2023-02-05T01:27:24.486Z,100228.14
2023-02-05T01:28:27.913Z,100238.30
2023-02-05T01:29:30.437Z,100242.22
2023-02-05T01:30:33.114Z,100236.58
2023-02-05T01:31:35.235Z,100236.58
2023-02-05T01:32:38.137Z,100244.34
2023-02-05T01:33:40.081Z,100245.16
2023-02-05T01:34:42.139Z,100252.89
2023-02-05T01:35:45.159Z,100245.83
2023-02-05T01:36:49.662Z,100248.34
2023-02-05T01:37:52.192Z,100254.78
2023-02-05T01:38:54.313Z,100246.50
2023-02-05T01:39:57.930Z,100245.24
2023-02-05T01:41:00.271Z,100241.77
2023-02-05T01:42:03.558Z,100241.13
2023-02-05T01:43:14.283Z,100247.95
2023-02-05T01:44:21.497Z,100252.24
2023-02-05T01:45:32.043Z,100248.45
2023-02-05T01:46:38.725Z,100249.27
2023-02-05T01:47:41.124Z,100248.45
2023-02-05T01:48:47.599Z,100250.87
2023-02-05T01:49:50.212Z,100249.16
2023-02-05T01:51:00.140Z,100257.62
2023-02-05T01:52:06.772Z,100253.79
2023-02-05T01:53:12.590Z,100244.72
2023-02-05T01:54:18.218Z,100244.86
2023-02-05T01:55:21.105Z,100252.72
2023-02-05T01:56:30.216Z,100242.75
2023-02-05T01:57:32.717Z,100252.24
2023-02-05T01:59:51.690Z,100252.38
2023-02-05T02:00:54.315Z,100261.41
2023-02-05T02:02:00.188Z,100253.96
2023-02-05T02:03:05.170Z,100255.45
2023-02-05T02:04:10.565Z,100250.37
2023-02-05T02:05:16.510Z,100266.17
2023-02-05T02:06:18.903Z,100244.25
2023-02-05T02:07:23.359Z,100246.87
2023-02-05T02:08:26.277Z,100242.47
2023-02-05T02:09:28.737Z,100239.31
2023-02-05T02:10:33.357Z,100246.91
2023-02-05T02:11:39.085Z,100252.86
2023-02-05T02:12:44.525Z,100241.85
2023-02-05T02:13:50.028Z,100246.93
2023-02-05T02:14:56.183Z,100242.95
2023-02-05T02:15:59.424Z,100250.32
2023-02-05T02:17:03.775Z,100251.25
2023-02-05T02:18:26.563Z,100260.56
2023-02-05T02:19:38.233Z,100253.03
2023-02-05T02:20:41.794Z,100251.19
2023-02-05T02:21:53.397Z,100254.05
2023-02-05T02:22:59.907Z,100253.87
2023-02-05T02:24:20.716Z,100259.72
2023-02-05T02:25:38.628Z,100260.63
2023-02-05T02:27:16.679Z,100260.77
2023-02-05T02:28:28.907Z,100261.30
2023-02-05T02:29:38.530Z,100255.59
2023-02-05T02:30:57.312Z,100255.03
2023-02-05T02:32:03.369Z,100248.66
2023-02-05T02:33:26.817Z,100243.94
2023-02-05T02:34:32.637Z,100241.29
2023-02-05T02:35:53.452Z,100243.80
2023-02-05T02:37:02.430Z,100256.16
2023-02-05T02:38:20.398Z,100243.28
2023-02-05T02:39:39.680Z,100255.59
2023-02-05T02:40:46.084Z,100250.61
2023-02-05T02:41:53.395Z,100257.46
2023-02-05T02:43:25.907Z,100251.59
2023-02-05T02:44:44.273Z,100260.14
2023-02-05T02:45:50.071Z,100255.41
2023-02-05T02:46:55.100Z,100257.14
2023-02-05T02:48:01.599Z,100258.86
2023-02-05T02:49:06.855Z,100265.58
2023-02-05T02:50:16.395Z,100253.80
2023-02-05T02:51:20.884Z,100263.04
2023-02-05T02:52:25.606Z,100257.19
2023-02-05T02:53:31.740Z,100258.09
2023-02-05T02:54:36.698Z,100261.67
2023-02-05T02:55:43.821Z,100256.31
2023-02-05T02:56:50.281Z,100266.62
2023-02-05T02:57:56.267Z,100265.73
2023-02-05T02:59:06.970Z,100274.22
2023-02-05T03:00:13.858Z,100261.69
2023-02-05T03:01:19.322Z,100260.05
2023-02-05T03:02:22.485Z,100264.19
2023-02-05T03:03:28.245Z,100268.34
2023-02-05T03:04:37.213Z,100260.66
2023-02-05T03:05:42.143Z,100262.24
2023-02-05T03:06:47.658Z,100266.27
2023-02-05T03:07:56.259Z,100271.83
2023-02-05T03:09:08.158Z,100265.84
2023-02-05T03:10:14.577Z,100271.60
2023-02-05T03:11:17.428Z,100272.79
2023-02-05T03:12:20.401Z,100271.20
2023-02-05T03:13:22.631Z,100266.21
2023-02-05T03:14:27.202Z,100287.50
2023-02-05T03:15:32.079Z,100265.47
2023-02-05T03:16:35.119Z,100273.20
2023-02-05T03:17:39.798Z,100280.85
2023-02-05T03:18:43.066Z,100273.17
2023-02-05T03:19:52.408Z,100274.16
2023-02-05T03:20:58.834Z,100270.87
2023-02-05T03:22:03.952Z,100273.47
2023-02-05T03:23:06.312Z,100275.20
2023-02-05T03:24:10.084Z,100278.51
2023-02-05T03:25:12.875Z,100280.98
2023-02-05T03:26:27.717Z,100281.52
2023-02-05T03:27:32.977Z,100278.06
2023-02-05T03:28:35.600Z,100278.17
2023-02-05T03:29:42.399Z,100275.83
2023-02-05T03:32:32.910Z,100273.61
2023-02-05T03:33:47.710Z,100279.33
2023-02-05T03:35:10.525Z,100276.56
2023-02-05T03:36:39.981Z,100283.31
2023-02-05T03:38:08.306Z,100278.80
2023-02-05T03:39:41.838Z,100281.45
2023-02-05T03:41:07.919Z,100277.44
2023-02-05T03:42:38.040Z,100272.36
2023-02-05T03:43:49.804Z,100275.86
2023-02-05T03:44:56.395Z,100273.29
2023-02-05T03:46:19.574Z,100269.16
2023-02-05T03:47:46.458Z,100275.72
2023-02-05T03:48:55.040Z,100269.82
2023-02-05T03:50:03.310Z,100276.78
2023-02-05T03:51:32.037Z,100267.65
2023-02-05T03:52:38.272Z,100270.24
2023-02-05T03:54:01.918Z,100272.67
2023-02-05T03:55:14.241Z,100277.50
2023-02-05T03:56:24.264Z,100271.51
2023-02-05T03:57:31.651Z,100281.45
2023-02-05T03:59:49.642Z,100264.65
2023-02-05T04:00:52.127Z,100272.36
2023-02-05T04:01:55.660Z,100274.05
2023-02-05T04:02:58.140Z,100271.62
2023-02-05T04:04:02.505Z,100278.55
2023-02-05T04:05:05.756Z,100275.33
2023-02-05T04:06:08.941Z,100282.93
2023-02-05T04:07:12.831Z,100280.28
2023-02-05T04:08:15.757Z,100276.15
2023-02-05T04:09:20.035Z,100276.92
2023-02-05T04:10:22.462Z,100282.00
2023-02-05T04:11:25.424Z,100282.77
2023-02-05T04:12:28.376Z,100278.75
2023-02-05T04:13:31.134Z,100293.15
2023-02-05T04:14:34.767Z,100285.50
2023-02-05T04:15:36.910Z,100284.70
2023-02-05T04:16:43.413Z,100281.45
2023-02-05T04:17:46.397Z,100289.89
2023-02-05T04:18:49.082Z,100282.00
2023-02-05T04:19:51.817Z,100286.81
2023-02-05T04:20:54.720Z,100283.59
2023-02-05T04:21:58.722Z,100289.41
2023-02-05T04:23:01.146Z,100281.52
2023-02-05T04:24:05.167Z,100285.44
2023-02-05T04:25:08.503Z,100279.73
2023-02-05T04:26:12.135Z,100279.73
2023-02-05T04:27:16.076Z,100288.83
2023-02-05T04:28:18.582Z,100277.11
2023-02-05T04:29:21.398Z,100282.86
2023-02-05T04:30:25.426Z,100284.21
2023-02-05T04:31:28.241Z,100286.72
2023-02-05T04:32:30.860Z,100285.35
2023-02-05T04:33:34.067Z,100287.27
2023-02-05T04:34:36.604Z,100281.37
2023-02-05T04:35:40.600Z,100294.08
2023-02-05T04:36:43.310Z,100281.45
2023-02-05T04:37:45.399Z,100284.73
2023-02-05T04:38:47.534Z,100279.05
2023-02-05T04:39:50.636Z,100279.88
2023-02-05T04:40:52.939Z,100295.17
2023-02-05T04:41:55.259Z,100290.52
2023-02-05T04:42:58.283Z,100283.09
2023-02-05T04:44:00.973Z,100294.37
2023-02-05T04:45:05.275Z,100290.88
2023-02-05T04:46:09.579Z,100287.50
2023-02-05T04:47:12.930Z,100291.81
2023-02-05T04:48:15.016Z,100281.63
2023-02-05T04:49:17.128Z,100285.66
2023-02-05T04:50:19.350Z,100290.86
2023-02-05T04:51:21.688Z,100291.90
2023-02-05T04:52:23.896Z,100287.30
2023-02-05T04:53:26.129Z,100304.41
2023-02-05T04:54:28.277Z,100291.76
2023-02-05T04:55:31.728Z,100295.77
2023-02-05T04:56:34.228Z,100296.53
2023-02-05T04:57:36.606Z,100295.91
2023-02-05T04:58:39.351Z,100307.63
2023-02-05T04:59:41.578Z,100314.43
2023-02-05T05:00:43.801Z,100311.86
2023-02-05T05:01:46.022Z,100297.66
2023-02-05T05:02:48.419Z,100301.98
2023-02-05T05:03:50.910Z,100312.91
2023-02-05T05:04:53.039Z,100307.45
2023-02-05T05:05:56.016Z,100314.23
2023-02-05T05:06:58.787Z,100307.83
2023-02-05T05:08:01.094Z,100313.95
2023-02-05T05:09:03.523Z,100309.85
2023-02-05T05:10:07.543Z,100311.41
2023-02-05T05:11:12.857Z,100313.35
2023-02-05T05:12:14.929Z,100318.44
2023-02-05T05:13:17.070Z,100314.28
2023-02-05T05:14:19.368Z,100308.37
2023-02-05T05:15:21.829Z,100314.41
2023-02-05T05:16:24.316Z,100309.33
2023-02-05T05:17:26.578Z,100305.97
2023-02-05T05:18:29.119Z,100309.41
2023-02-05T05:19:31.355Z,100312.72
2023-02-05T05:20:33.769Z,100312.86
2023-02-05T05:21:36.205Z,100318.79
2023-02-05T05:22:38.879Z,100307.69
2023-02-05T05:23:41.128Z,100318.73
2023-02-05T05:24:43.244Z,100313.46
2023-02-05T05:25:47.684Z,100321.28
2023-02-05T05:26:50.266Z,100309.49
2023-02-05T05:27:52.442Z,100316.27
2023-02-05T05:28:55.940Z,100313.81
2023-02-05T05:29:58.275Z,100322.37
2023-02-05T05:31:07.944Z,100316.41
2023-02-05T05:32:10.038Z,100320.75
2023-02-05T05:33:13.779Z,100322.47
2023-02-05T05:34:15.919Z,100324.03
2023-02-05T05:35:18.014Z,100328.43
2023-02-05T05:36:20.209Z,100329.30
2023-02-05T05:37:22.661Z,100326.73
2023-02-05T05:38:24.699Z,100331.05
2023-02-05T05:39:45.505Z,100325.06
2023-02-05T05:41:06.150Z,100326.66
2023-02-05T05:42:29.249Z,100327.32
2023-02-05T05:44:53.479Z,100346.59
2023-02-05T05:45:55.446Z,100342.13
2023-02-05T05:46:57.915Z,100341.80
2023-02-05T05:48:00.745Z,100335.05
2023-02-05T05:49:03.551Z,100339.29
2023-02-05T05:50:07.286Z,100347.95
2023-02-05T05:51:10.443Z,100335.74
2023-02-05T05:52:15.105Z,100342.49
2023-02-05T05:53:17.716Z,100343.42
2023-02-05T05:54:19.904Z,100345.23
2023-02-05T05:55:22.038Z,100343.55
2023-02-05T05:56:25.373Z,100348.70
2023-02-05T05:57:28.548Z,100352.22
2023-02-05T05:58:31.778Z,100363.32
2023-02-05T05:59:34.192Z,100360.94
2023-02-05T06:00:38.913Z,100359.19
2023-02-05T06:01:41.309Z,100357.52
2023-02-05T06:02:44.149Z,100356.59
2023-02-05T06:03:46.549Z,100355.80
2023-02-05T06:04:48.761Z,100363.53
2023-02-05T06:05:50.827Z,100355.72
2023-02-05T06:06:53.764Z,100354.88
2023-02-05T06:07:58.833Z,100359.14
2023-02-05T06:09:00.966Z,100361.59
2023-02-05T06:10:03.701Z,100355.80
2023-02-05T06:11:06.176Z,100354.16
2023-02-05T06:12:10.027Z,100361.36
2023-02-05T06:13:13.636Z,100372.44
2023-02-05T06:14:16.178Z,100359.94
2023-02-05T06:15:20.217Z,100366.95
2023-02-05T06:16:22.443Z,100372.52
2023-02-05T06:17:25.334Z,100369.13
2023-02-05T06:18:27.514Z,100381.10
2023-02-05T06:19:30.885Z,100367.48
2023-02-05T06:20:33.152Z,100371.72
2023-02-05T06:21:35.446Z,100374.40
2023-02-05T06:22:38.075Z,100374.55
2023-02-05T06:23:40.206Z,100369.55
2023-02-05T06:24:42.755Z,100368.67
2023-02-05T06:25:45.340Z,100370.16
2023-02-05T06:26:48.971Z,100374.42
2023-02-05T06:27:51.325Z,100380.14
2023-02-05T06:28:55.257Z,100368.71
2023-02-05T06:29:57.946Z,100370.80
2023-02-05T06:31:00.423Z,100369.09
2023-02-05T06:32:02.736Z,100369.28
2023-02-05T06:33:05.382Z,100373.71
2023-02-05T06:34:07.641Z,100379.37
2023-02-05T06:35:09.933Z,100381.84
2023-02-05T06:36:13.136Z,100384.38
2023-02-05T06:37:15.446Z,100391.05
2023-02-05T06:38:19.150Z,100371.77
2023-02-05T06:39:24.853Z,100383.30
2023-02-05T06:40:27.575Z,100383.55
2023-02-05T06:41:29.924Z,100383.22
2023-02-05T06:42:32.140Z,100388.23
2023-02-05T06:43:34.409Z,100391.89
2023-02-05T06:44:36.521Z,100385.41
2023-02-05T06:45:38.651Z,100387.25
2023-02-05T06:46:41.049Z,100392.02
2023-02-05T06:47:44.874Z,100393.78
2023-02-05T06:48:47.340Z,100398.00
2023-02-05T06:49:50.719Z,100393.66
2023-02-05T06:50:53.476Z,100379.98
2023-02-05T06:51:56.516Z,100394.33
2023-02-05T06:52:58.683Z,100397.00
2023-02-05T06:54:01.023Z,100396.33
2023-02-05T06:55:04.186Z,100388.02
2023-02-05T06:56:06.879Z,100385.42
2023-02-05T06:57:09.407Z,100394.43
2023-02-05T06:58:12.640Z,100401.85
2023-02-05T06:59:15.385Z,100398.57
2023-02-05T07:00:19.723Z,100400.55
2023-02-05T07:01:21.986Z,100393.05
2023-02-05T07:02:25.096Z,100401.60
2023-02-05T07:03:28.461Z,100399.13
2023-02-05T07:04:31.932Z,100393.33
2023-02-05T07:05:34.502Z,100397.36
2023-02-05T07:06:37.885Z,100397.16
2023-02-05T07:07:40.105Z,100402.05
2023-02-05T07:08:42.430Z,100390.08
2023-02-05T07:09:45.169Z,100395.46
2023-02-05T07:10:47.559Z,100398.83
2023-02-05T07:11:50.605Z,100398.95
2023-02-05T07:12:52.797Z,100414.09
2023-02-05T07:13:56.152Z,100390.98
2023-02-05T07:14:58.527Z,100400.49
2023-02-05T07:16:05.359Z,100413.67
2023-02-05T07:17:08.307Z,100404.48
2023-02-05T07:18:10.314Z,100400.55
2023-02-05T07:19:12.873Z,100406.59
2023-02-05T07:20:17.155Z,100409.31
2023-02-05T07:21:19.693Z,100409.27
2023-02-05T07:22:22.474Z,100416.20
2023-02-05T07:23:24.910Z,100414.58
2023-02-05T07:24:27.614Z,100411.16
2023-02-05T07:25:31.948Z,100419.81
2023-02-05T07:26:35.714Z,100416.87
2023-02-05T07:27:38.388Z,100426.00
2023-02-05T07:28:42.993Z,100420.83
2023-02-05T07:29:45.239Z,100422.69
2023-02-05T07:30:49.153Z,100417.80
2023-02-05T07:31:52.343Z,100429.83
2023-02-05T07:32:54.581Z,100421.44
2023-02-05T07:33:58.377Z,100417.13
2023-02-05T07:35:00.754Z,100434.23
2023-02-05T07:36:08.567Z,100421.42
2023-02-05T07:37:12.634Z,100429.83
2023-02-05T07:38:15.635Z,100426.59
2023-02-05T07:39:18.928Z,100426.18
2023-02-05T07:40:21.744Z,100414.89
2023-02-05T07:41:26.702Z,100414.89
2023-02-05T07:42:31.608Z,100417.59
2023-02-05T07:43:37.393Z,100419.48
2023-02-05T07:44:39.757Z,100420.34
2023-02-05T07:45:41.858Z,100421.30
2023-02-05T07:46:44.119Z,100411.16
2023-02-05T07:47:48.982Z,100417.34
2023-02-05T07:48:51.199Z,100428.23
2023-02-05T07:49:53.280Z,100419.42
2023-02-05T07:50:57.010Z,100416.20
2023-02-05T07:51:59.153Z,100418.67
2023-02-05T07:53:02.249Z,100427.44
2023-02-05T07:54:10.336Z,100427.44
2023-02-05T07:55:12.351Z,100425.03
2023-02-05T07:56:15.155Z,100423.27
2023-02-05T07:57:17.167Z,100429.95
2023-02-05T07:58:25.288Z,100435.41
2023-02-05T07:59:27.719Z,100436.62
2023-02-05T08:00:30.655Z,100431.60
2023-02-05T08:01:34.536Z,100432.52
2023-02-05T08:02:37.911Z,100433.50
2023-02-05T08:03:40.377Z,100435.34
2023-02-05T08:04:43.482Z,100431.92
2023-02-05T08:05:46.566Z,100436.14
2023-02-05T08:06:48.871Z,100444.68
2023-02-05T08:07:51.236Z,100437.96
2023-02-05T08:08:54.673Z,100440.63
2023-02-05T08:09:58.033Z,100433.83
2023-02-05T08:11:06.438Z,100442.28
2023-02-05T08:12:09.360Z,100440.66
2023-02-05T08:13:12.251Z,100445.68
2023-02-05T08:14:14.854Z,100444.17
2023-02-05T08:15:17.639Z,100441.98
2023-02-05T08:16:21.269Z,100449.32
2023-02-05T08:17:23.621Z,100450.45
2023-02-05T08:18:25.809Z,100455.55
2023-02-05T08:19:27.920Z,100453.24
2023-02-05T08:20:30.259Z,100450.63
2023-02-05T08:21:33.548Z,100447.48
2023-02-05T08:22:38.127Z,100444.08
2023-02-05T08:23:40.587Z,100456.95
2023-02-05T08:24:42.877Z,100454.55
2023-02-05T08:25:45.037Z,100456.34
2023-02-05T08:26:47.452Z,100457.09
2023-02-05T08:27:49.617Z,100464.92
2023-02-05T08:28:51.705Z,100459.91
2023-02-05T08:29:53.954Z,100462.40
2023-02-05T08:30:57.050Z,100463.77
2023-02-05T08:31:59.692Z,100466.34
2023-02-05T08:33:02.294Z,100455.98
2023-02-05T08:34:05.374Z,100468.14
2023-02-05T08:35:07.962Z,100459.50
2023-02-05T08:36:11.487Z,100471.52
2023-02-05T08:37:13.629Z,100465.61
2023-02-05T08:38:17.087Z,100473.48
2023-02-05T08:39:20.443Z,100483.89
2023-02-05T08:40:23.020Z,100473.70
2023-02-05T08:41:25.239Z,100485.66
2023-02-05T08:42:28.001Z,100477.23
2023-02-05T08:43:30.353Z,100479.89
2023-02-05T08:44:33.213Z,100483.20
2023-02-05T08:45:36.972Z,100473.91
2023-02-05T08:46:49.299Z,100487.56
2023-02-05T08:47:45.023Z,100480.81
2023-02-05T08:48:48.261Z,100481.02
2023-02-05T08:49:50.972Z,100477.38
2023-02-05T08:50:54.192Z,100476.84
2023-02-05T08:51:57.674Z,100474.48
2023-02-05T08:53:00.969Z,100488.92
2023-02-05T08:54:05.277Z,100480.63
2023-02-05T08:55:08.723Z,100483.05
2023-02-05T08:56:13.899Z,100487.45
2023-02-05T08:57:16.529Z,100489.10
2023-02-05T08:58:18.655Z,100477.41
2023-02-05T08:59:21.508Z,100477.41
2023-02-05T09:00:24.846Z,100494.49
2023-02-05T09:01:27.620Z,100489.41
2023-02-05T09:02:32.138Z,100487.84
2023-02-05T09:03:34.520Z,100493.77
2023-02-05T09:04:38.497Z,100492.13
2023-02-05T09:05:40.963Z,100490.39
2023-02-05T09:06:44.345Z,100487.98
2023-02-05T09:07:47.546Z,100496.43
2023-02-05T09:08:49.949Z,100494.69
2023-02-05T09:09:51.958Z,100497.26
2023-02-05T09:10:54.379Z,100494.81
2023-02-05T09:11:58.103Z,100498.98
2023-02-05T09:13:00.884Z,100500.81
2023-02-05T09:14:04.053Z,100497.23
2023-02-05T09:15:08.164Z,100498.09
2023-02-05T09:16:13.281Z,100499.19
2023-02-05T09:17:16.772Z,100509.67
2023-02-05T09:18:19.416Z,100503.67
2023-02-05T09:19:21.542Z,100504.58
2023-02-05T09:20:23.667Z,100506.28
2023-02-05T09:21:27.123Z,100490.06
2023-02-05T09:22:29.488Z,100490.06
2023-02-05T09:23:32.506Z,100505.59
2023-02-05T09:24:37.015Z,100500.45
2023-02-05T09:25:41.214Z,100507.77
2023-02-05T09:26:43.851Z,100501.74
2023-02-05T09:27:46.238Z,100505.08
2023-02-05T09:28:49.550Z,100499.26
2023-02-05T09:29:51.750Z,100505.29
2023-02-05T09:30:55.166Z,100500.27
2023-02-05T09:32:00.351Z,100500.29
2023-02-05T09:33:02.892Z,100505.45
2023-02-05T09:34:05.874Z,100501.91
2023-02-05T09:35:08.453Z,100510.95
2023-02-05T09:36:20.494Z,100500.00
2023-02-05T09:37:23.798Z,100505.29
2023-02-05T09:38:26.040Z,100491.54
2023-02-05T09:40:17.348Z,100499.31
2023-02-05T09:40:44.496Z,100497.08
2023-02-05T09:41:53.950Z,100499.56
2023-02-05T09:43:31.518Z,100489.47
2023-02-05T09:44:40.764Z,100492.06
2023-02-05T09:45:59.318Z,100492.09
2023-02-05T09:47:08.986Z,100490.25
2023-02-05T09:48:38.488Z,100493.56
2023-02-05T09:50:06.868Z,100488.52
2023-02-05T09:51:12.301Z,100496.52
2023-02-05T09:52:21.229Z,100496.05
2023-02-05T09:53:25.913Z,100488.80
2023-02-05T09:54:31.724Z,100486.77
2023-02-05T09:55:38.177Z,100486.89
2023-02-05T09:56:43.320Z,100491.25
2023-02-05T09:57:46.253Z,100490.37
2023-02-05T09:58:51.345Z,100486.16
2023-02-05T09:59:53.815Z,100488.87
2023-02-05T10:01:02.864Z,100484.86
2023-02-05T10:03:33.433Z,100489.07
2023-02-05T10:04:36.313Z,100488.22
2023-02-05T10:05:48.644Z,100487.34
2023-02-05T10:07:09.298Z,100484.80
2023-02-05T10:08:21.340Z,100484.14
2023-02-05T10:09:48.960Z,100486.84
2023-02-05T10:10:54.200Z,100488.56
2023-02-05T10:12:12.350Z,100490.22
2023-02-05T10:13:27.357Z,100496.23
2023-02-05T10:14:49.880Z,100498.73
2023-02-05T10:16:04.982Z,100495.52
2023-02-05T10:17:29.902Z,100498.06
2023-02-05T10:18:51.032Z,100495.45
2023-02-05T10:22:01.054Z,100504.14
2023-02-05T10:23:13.099Z,100492.19
2023-02-05T10:24:39.606Z,100504.16
2023-02-05T10:25:53.344Z,100506.39
2023-02-05T10:27:00.635Z,100513.98
2023-02-05T10:28:13.218Z,100500.38
2023-02-05T10:29:25.246Z,100505.30
2023-02-05T10:30:34.535Z,100515.23
2023-02-05T10:31:43.305Z,100503.19
2023-02-05T10:33:01.798Z,100512.05
2023-02-05T10:34:16.653Z,100508.05
2023-02-05T10:35:26.234Z,100512.41
2023-02-05T10:36:29.746Z,100516.63
2023-02-05T10:37:44.438Z,100524.36
2023-02-05T10:38:47.592Z,100521.87
2023-02-05T10:39:50.052Z,100519.38
2023-02-05T10:41:00.448Z,100526.21
2023-02-05T10:42:06.731Z,100521.27
2023-02-05T10:43:25.947Z,100526.40
2023-02-05T10:44:47.944Z,100524.60
2023-02-05T10:45:52.588Z,100532.94
2023-02-05T10:46:59.301Z,100521.39
2023-02-05T10:48:21.523Z,100533.40
2023-02-05T10:49:30.419Z,100522.30
2023-02-05T10:50:55.003Z,100524.07
2023-02-05T10:51:58.027Z,100531.07
2023-02-05T10:53:00.242Z,100532.72
2023-02-05T10:54:02.806Z,100528.52
2023-02-05T10:55:08.763Z,100531.97
2023-02-05T10:56:14.961Z,100531.19
2023-02-05T10:57:20.307Z,100531.19
2023-02-05T10:58:45.755Z,100531.07
2023-02-05T10:59:56.050Z,100539.58
2023-02-05T11:01:00.858Z,100531.73
2023-02-05T11:02:06.693Z,100525.59
2023-02-05T11:03:12.745Z,100534.00
2023-02-05T11:04:18.182Z,100534.92
2023-02-05T11:05:40.088Z,100541.75
2023-02-05T11:06:48.734Z,100530.72
2023-02-05T11:07:54.203Z,100537.31
2023-02-05T11:08:58.020Z,100547.53
2023-02-05T11:10:25.557Z,100538.23
2023-02-05T11:11:31.312Z,100544.17
2023-02-05T11:12:33.558Z,100551.92
2023-02-05T11:13:40.318Z,100551.14
2023-02-05T11:14:48.890Z,100546.78
2023-02-05T11:16:09.162Z,100551.00
2023-02-05T11:17:21.402Z,100555.28
2023-02-05T11:18:36.360Z,100554.47
2023-02-05T11:19:39.529Z,100557.78
2023-02-05T11:20:47.399Z,100551.84
2023-02-05T11:21:56.021Z,100549.33
2023-02-05T11:23:11.194Z,100544.00
2023-02-05T11:24:25.501Z,100551.72
2023-02-05T11:25:30.458Z,100542.36
2023-02-05T11:26:33.407Z,100547.45
2023-02-05T11:27:36.246Z,100548.27
2023-02-05T11:28:40.691Z,100546.57
2023-02-05T11:29:43.827Z,100543.24
2023-02-05T11:30:53.693Z,100552.67
2023-02-05T11:31:51.868Z,100548.45
2023-02-05T11:32:54.440Z,100544.17
2023-02-05T11:34:11.627Z,100551.82
2023-02-05T11:35:31.845Z,100545.98
2023-02-05T11:36:36.830Z,100557.09
2023-02-05T11:37:41.204Z,100547.70
2023-02-05T11:38:58.610Z,100554.38
2023-02-05T11:40:01.962Z,100552.72
2023-02-05T11:41:07.941Z,100551.22
2023-02-05T11:42:23.392Z,100551.22
2023-02-05T11:44:51.664Z,100557.30
2023-02-05T11:45:57.785Z,100550.19
2023-02-05T11:47:04.104Z,100557.93
2023-02-05T11:48:13.403Z,100557.84
2023-02-05T11:50:29.270Z,100559.72
2023-02-05T11:51:38.238Z,100559.56
2023-02-05T11:52:40.511Z,100558.08
2023-02-05T11:53:46.714Z,100559.78
2023-02-05T11:54:50.630Z,100564.10
2023-02-05T11:56:02.913Z,100559.88
2023-02-05T11:57:21.813Z,100567.53
2023-02-05T11:58:37.281Z,100570.08
2023-02-05T11:59:40.001Z,100562.48
2023-02-05T12:00:52.965Z,100565.95
2023-02-05T12:01:57.113Z,100559.13
2023-02-05T12:03:06.689Z,100564.38
2023-02-05T12:04:12.514Z,100571.88
2023-02-05T12:05:21.019Z,100558.16
2023-02-05T12:06:29.401Z,100566.48
2023-02-05T12:07:36.636Z,100566.64
2023-02-05T12:08:48.796Z,100567.23
2023-02-05T12:09:54.348Z,100575.56
2023-02-05T12:11:24.565Z,100581.43
2023-02-05T12:12:36.519Z,100567.64
2023-02-05T12:14:07.018Z,100579.59
2023-02-05T12:15:23.211Z,100582.08
2023-02-05T12:16:33.376Z,100585.69
2023-02-05T12:17:42.934Z,100582.41
2023-02-05T12:18:57.423Z,100583.33
2023-02-05T12:20:24.896Z,100575.73
2023-02-05T12:21:46.604Z,100573.19
2023-02-05T12:23:04.798Z,100576.78
2023-02-05T12:24:18.174Z,100575.89
2023-02-05T12:25:28.072Z,100575.91
2023-02-05T12:26:38.305Z,100570.69
2023-02-05T12:27:47.244Z,100579.20
2023-02-05T12:29:00.309Z,100583.38
2023-02-05T12:30:31.955Z,100575.64
2023-02-05T12:31:47.748Z,100573.11
2023-02-05T12:33:10.696Z,100578.38
2023-02-05T12:34:16.625Z,100572.41
2023-02-05T12:35:32.884Z,100580.83
2023-02-05T12:37:11.333Z,100578.50
2023-02-05T12:38:32.409Z,100580.33
2023-02-05T12:39:41.301Z,100582.13
2023-02-05T12:41:05.762Z,100575.22
2023-02-05T12:42:17.341Z,100586.13
2023-02-05T12:43:34.592Z,100581.83
2023-02-05T12:44:40.877Z,100581.02
2023-02-05T12:46:05.387Z,100580.93